sensor_id;sensor_type;location;lat;lon;timestamp;P1;durP1;ratioP1;P2;durP2;ratioP2
11921;SDS011;6021;51.182;3.160;2023-08-17T00:00:39;5.40;;;4.90;;
11921;SDS011;6021;51.182;3.160;2023-08-17T00:03:07;5.30;;;4.50;;
11921;SDS011;6021;51.182;3.160;2023-08-17T00:05:36;4.90;;;4.50;;
11921;SDS011;6021;51.182;3.160;2023-08-17T00:08:04;5.43;;;4.83;;
11921;SDS011;6021;51.182;3.160;2023-08-17T00:10:32;4.90;;;4.40;;
11921;SDS011;6021;51.182;3.160;2023-08-17T00:13:01;6.27;;;5.67;;
11921;SDS011;6021;51.182;3.160;2023-08-17T00:15:30;5.67;;;5.00;;
11921;SDS011;6021;51.182;3.160;2023-08-17T00:17:59;5.80;;;5.00;;
11921;SDS011;6021;51.182;3.160;2023-08-17T00:20:27;4.70;;;4.30;;
11921;SDS011;6021;51.182;3.160;2023-08-17T00:22:55;5.93;;;5.07;;
11921;SDS011;6021;51.182;3.160;2023-08-17T00:25:24;6.57;;;5.97;;
11921;SDS011;6021;51.182;3.160;2023-08-17T00:27:52;5.20;;;4.80;;
11921;SDS011;6021;51.182;3.160;2023-08-17T00:30:21;6.40;;;5.60;;
11921;SDS011;6021;51.182;3.160;2023-08-17T00:32:49;5.23;;;4.43;;
11921;SDS011;6021;51.182;3.160;2023-08-17T00:35:17;5.70;;;5.10;;
11921;SDS011;6021;51.182;3.160;2023-08-17T00:37:46;6.00;;;4.93;;
11921;SDS011;6021;51.182;3.160;2023-08-17T00:40:14;5.20;;;4.70;;
11921;SDS011;6021;51.182;3.160;2023-08-17T00:42:42;5.30;;;4.90;;
11921;SDS011;6021;51.182;3.160;2023-08-17T00:45:11;5.53;;;4.80;;
11921;SDS011;6021;51.182;3.160;2023-08-17T00:47:39;6.00;;;5.27;;
11921;SDS011;6021;51.182;3.160;2023-08-17T00:50:07;6.53;;;4.47;;
11921;SDS011;6021;51.182;3.160;2023-08-17T00:52:37;5.70;;;5.30;;
11921;SDS011;6021;51.182;3.160;2023-08-17T00:55:06;4.73;;;4.17;;
11921;SDS011;6021;51.182;3.160;2023-08-17T00:57:35;5.47;;;4.97;;
11921;SDS011;6021;51.182;3.160;2023-08-17T01:00:05;5.87;;;5.00;;
11921;SDS011;6021;51.182;3.160;2023-08-17T01:02:34;7.87;;;5.37;;
11921;SDS011;6021;51.182;3.160;2023-08-17T01:05:02;5.83;;;5.20;;
11921;SDS011;6021;51.182;3.160;2023-08-17T01:07:32;5.30;;;4.10;;
11921;SDS011;6021;51.182;3.160;2023-08-17T01:10:01;4.73;;;4.20;;
11921;SDS011;6021;51.182;3.160;2023-08-17T01:12:31;5.33;;;4.53;;
11921;SDS011;6021;51.182;3.160;2023-08-17T01:15:05;5.13;;;4.27;;
11921;SDS011;6021;51.182;3.160;2023-08-17T01:20:15;4.77;;;4.33;;
11921;SDS011;6021;51.182;3.160;2023-08-17T01:22:45;4.00;;;3.70;;
11921;SDS011;6021;51.182;3.160;2023-08-17T01:25:15;4.40;;;3.23;;
11921;SDS011;6021;51.182;3.160;2023-08-17T01:27:44;4.30;;;3.53;;
11921;SDS011;6021;51.182;3.160;2023-08-17T01:30:13;4.60;;;3.97;;
11921;SDS011;6021;51.182;3.160;2023-08-17T01:32:44;5.67;;;3.90;;
11921;SDS011;6021;51.182;3.160;2023-08-17T01:38:12;5.63;;;4.47;;
11921;SDS011;6021;51.182;3.160;2023-08-17T01:40:41;3.87;;;3.47;;
11921;SDS011;6021;51.182;3.160;2023-08-17T01:43:13;4.00;;;3.60;;
11921;SDS011;6021;51.182;3.160;2023-08-17T01:45:43;4.77;;;3.63;;
11921;SDS011;6021;51.182;3.160;2023-08-17T01:48:12;4.27;;;3.87;;
11921;SDS011;6021;51.182;3.160;2023-08-17T01:50:40;3.73;;;3.43;;
11921;SDS011;6021;51.182;3.160;2023-08-17T01:53:08;4.70;;;4.23;;
11921;SDS011;6021;51.182;3.160;2023-08-17T01:55:38;4.17;;;3.73;;
11921;SDS011;6021;51.182;3.160;2023-08-17T01:58:06;4.23;;;3.77;;
11921;SDS011;6021;51.182;3.160;2023-08-17T02:00:34;4.23;;;3.83;;
11921;SDS011;6021;51.182;3.160;2023-08-17T02:03:03;4.27;;;3.70;;
11921;SDS011;6021;51.182;3.160;2023-08-17T02:05:31;4.03;;;3.70;;
11921;SDS011;6021;51.182;3.160;2023-08-17T02:08:00;3.90;;;3.40;;
11921;SDS011;6021;51.182;3.160;2023-08-17T02:10:28;4.30;;;4.00;;
11921;SDS011;6021;51.182;3.160;2023-08-17T02:12:57;4.37;;;3.97;;
11921;SDS011;6021;51.182;3.160;2023-08-17T02:15:25;4.20;;;3.80;;
11921;SDS011;6021;51.182;3.160;2023-08-17T02:17:53;4.90;;;3.83;;
11921;SDS011;6021;51.182;3.160;2023-08-17T02:20:22;4.30;;;3.90;;
11921;SDS011;6021;51.182;3.160;2023-08-17T02:22:50;4.13;;;3.57;;
11921;SDS011;6021;51.182;3.160;2023-08-17T02:25:18;4.13;;;3.80;;
11921;SDS011;6021;51.182;3.160;2023-08-17T02:27:47;4.20;;;3.80;;
11921;SDS011;6021;51.182;3.160;2023-08-17T02:30:15;4.23;;;3.83;;
11921;SDS011;6021;51.182;3.160;2023-08-17T02:32:43;4.00;;;3.70;;
11921;SDS011;6021;51.182;3.160;2023-08-17T02:35:12;5.23;;;4.07;;
11921;SDS011;6021;51.182;3.160;2023-08-17T02:37:40;6.03;;;4.50;;
11921;SDS011;6021;51.182;3.160;2023-08-17T02:40:09;5.37;;;4.63;;
11921;SDS011;6021;51.182;3.160;2023-08-17T02:42:37;4.43;;;3.70;;
11921;SDS011;6021;51.182;3.160;2023-08-17T02:45:08;3.80;;;3.37;;
11921;SDS011;6021;51.182;3.160;2023-08-17T02:47:37;3.70;;;3.40;;
11921;SDS011;6021;51.182;3.160;2023-08-17T02:50:05;4.13;;;3.73;;
11921;SDS011;6021;51.182;3.160;2023-08-17T02:52:34;3.97;;;3.43;;
11921;SDS011;6021;51.182;3.160;2023-08-17T02:55:02;4.27;;;3.87;;
11921;SDS011;6021;51.182;3.160;2023-08-17T02:57:31;4.67;;;3.80;;
11921;SDS011;6021;51.182;3.160;2023-08-17T02:59:59;4.13;;;3.60;;
11921;SDS011;6021;51.182;3.160;2023-08-17T03:02:27;4.47;;;3.17;;
11921;SDS011;6021;51.182;3.160;2023-08-17T03:04:56;3.87;;;3.30;;
11921;SDS011;6021;51.182;3.160;2023-08-17T03:07:24;3.53;;;3.20;;
11921;SDS011;6021;51.182;3.160;2023-08-17T03:09:52;3.50;;;3.20;;
11921;SDS011;6021;51.182;3.160;2023-08-17T03:12:21;3.43;;;3.13;;
11921;SDS011;6021;51.182;3.160;2023-08-17T03:14:49;3.10;;;2.90;;
11921;SDS011;6021;51.182;3.160;2023-08-17T03:17:17;3.37;;;3.07;;
11921;SDS011;6021;51.182;3.160;2023-08-17T03:19:45;3.13;;;2.90;;
11921;SDS011;6021;51.182;3.160;2023-08-17T03:22:14;3.47;;;3.17;;
11921;SDS011;6021;51.182;3.160;2023-08-17T03:24:42;3.50;;;3.17;;
11921;SDS011;6021;51.182;3.160;2023-08-17T03:27:10;3.60;;;3.30;;
11921;SDS011;6021;51.182;3.160;2023-08-17T03:29:38;3.50;;;3.20;;
11921;SDS011;6021;51.182;3.160;2023-08-17T03:32:07;3.63;;;3.33;;
11921;SDS011;6021;51.182;3.160;2023-08-17T03:34:35;3.23;;;2.90;;
11921;SDS011;6021;51.182;3.160;2023-08-17T03:37:04;3.80;;;3.50;;
11921;SDS011;6021;51.182;3.160;2023-08-17T03:39:33;3.53;;;3.23;;
11921;SDS011;6021;51.182;3.160;2023-08-17T03:42:01;3.93;;;3.57;;
11921;SDS011;6021;51.182;3.160;2023-08-17T03:44:29;3.60;;;3.30;;
11921;SDS011;6021;51.182;3.160;2023-08-17T03:46:58;4.07;;;3.67;;
11921;SDS011;6021;51.182;3.160;2023-08-17T03:49:26;5.03;;;3.80;;
11921;SDS011;6021;51.182;3.160;2023-08-17T03:51:55;4.63;;;3.73;;
11921;SDS011;6021;51.182;3.160;2023-08-17T03:54:23;3.53;;;3.00;;
11921;SDS011;6021;51.182;3.160;2023-08-17T03:56:51;4.50;;;3.70;;
11921;SDS011;6021;51.182;3.160;2023-08-17T03:59:20;4.47;;;3.50;;
11921;SDS011;6021;51.182;3.160;2023-08-17T04:01:50;3.53;;;3.23;;
11921;SDS011;6021;51.182;3.160;2023-08-17T04:04:18;3.97;;;3.57;;
11921;SDS011;6021;51.182;3.160;2023-08-17T04:06:46;3.33;;;3.03;;
11921;SDS011;6021;51.182;3.160;2023-08-17T04:09:15;3.80;;;3.17;;
11921;SDS011;6021;51.182;3.160;2023-08-17T04:11:44;3.43;;;3.03;;
11921;SDS011;6021;51.182;3.160;2023-08-17T04:14:12;3.87;;;3.10;;
11921;SDS011;6021;51.182;3.160;2023-08-17T04:16:41;3.40;;;3.10;;
11921;SDS011;6021;51.182;3.160;2023-08-17T04:19:09;3.10;;;2.90;;
11921;SDS011;6021;51.182;3.160;2023-08-17T04:21:37;3.20;;;2.90;;
11921;SDS011;6021;51.182;3.160;2023-08-17T04:24:06;3.77;;;2.77;;
11921;SDS011;6021;51.182;3.160;2023-08-17T04:26:34;4.70;;;3.00;;
11921;SDS011;6021;51.182;3.160;2023-08-17T04:29:03;3.23;;;2.93;;
11921;SDS011;6021;51.182;3.160;2023-08-17T04:31:31;4.40;;;3.47;;
11921;SDS011;6021;51.182;3.160;2023-08-17T04:33:59;4.10;;;3.10;;
11921;SDS011;6021;51.182;3.160;2023-08-17T04:36:28;3.67;;;2.90;;
11921;SDS011;6021;51.182;3.160;2023-08-17T04:38:56;4.57;;;3.07;;
11921;SDS011;6021;51.182;3.160;2023-08-17T04:41:24;4.37;;;3.90;;
11921;SDS011;6021;51.182;3.160;2023-08-17T04:43:53;3.87;;;3.30;;
11921;SDS011;6021;51.182;3.160;2023-08-17T04:46:21;3.30;;;2.80;;
11921;SDS011;6021;51.182;3.160;2023-08-17T04:48:49;3.37;;;3.00;;
11921;SDS011;6021;51.182;3.160;2023-08-17T04:51:19;4.00;;;2.90;;
11921;SDS011;6021;51.182;3.160;2023-08-17T04:53:47;4.07;;;2.83;;
11921;SDS011;6021;51.182;3.160;2023-08-17T04:56:15;4.37;;;3.30;;
11921;SDS011;6021;51.182;3.160;2023-08-17T04:58:43;3.93;;;3.00;;
11921;SDS011;6021;51.182;3.160;2023-08-17T05:01:12;3.73;;;3.03;;
11921;SDS011;6021;51.182;3.160;2023-08-17T05:03:40;2.73;;;2.53;;
11921;SDS011;6021;51.182;3.160;2023-08-17T05:06:08;3.67;;;2.40;;
11921;SDS011;6021;51.182;3.160;2023-08-17T05:08:37;3.10;;;2.70;;
11921;SDS011;6021;51.182;3.160;2023-08-17T05:11:05;3.90;;;2.73;;
11921;SDS011;6021;51.182;3.160;2023-08-17T05:13:33;2.90;;;2.70;;
11921;SDS011;6021;51.182;3.160;2023-08-17T05:16:02;3.77;;;2.70;;
11921;SDS011;6021;51.182;3.160;2023-08-17T05:18:31;4.10;;;2.70;;
11921;SDS011;6021;51.182;3.160;2023-08-17T05:21:00;3.73;;;2.90;;
11921;SDS011;6021;51.182;3.160;2023-08-17T05:23:28;3.30;;;2.80;;
11921;SDS011;6021;51.182;3.160;2023-08-17T05:25:56;2.93;;;2.63;;
11921;SDS011;6021;51.182;3.160;2023-08-17T05:28:25;4.63;;;2.90;;
11921;SDS011;6021;51.182;3.160;2023-08-17T05:30:53;2.50;;;2.30;;
11921;SDS011;6021;51.182;3.160;2023-08-17T05:33:21;4.27;;;3.03;;
11921;SDS011;6021;51.182;3.160;2023-08-17T05:35:53;3.10;;;2.80;;
11921;SDS011;6021;51.182;3.160;2023-08-17T05:38:22;3.90;;;3.10;;
11921;SDS011;6021;51.182;3.160;2023-08-17T05:40:56;4.00;;;2.70;;
11921;SDS011;6021;51.182;3.160;2023-08-17T05:43:25;4.63;;;2.87;;
11921;SDS011;6021;51.182;3.160;2023-08-17T05:45:53;3.37;;;2.73;;
11921;SDS011;6021;51.182;3.160;2023-08-17T05:48:23;5.33;;;2.70;;
11921;SDS011;6021;51.182;3.160;2023-08-17T05:50:52;4.10;;;2.63;;
11921;SDS011;6021;51.182;3.160;2023-08-17T05:53:20;4.53;;;2.90;;
11921;SDS011;6021;51.182;3.160;2023-08-17T05:55:48;4.33;;;3.00;;
11921;SDS011;6021;51.182;3.160;2023-08-17T05:58:17;4.63;;;2.97;;
11921;SDS011;6021;51.182;3.160;2023-08-17T06:00:45;3.23;;;2.70;;
11921;SDS011;6021;51.182;3.160;2023-08-17T06:03:13;4.33;;;2.87;;
11921;SDS011;6021;51.182;3.160;2023-08-17T06:05:42;3.63;;;3.07;;
11921;SDS011;6021;51.182;3.160;2023-08-17T06:08:10;3.63;;;2.80;;
11921;SDS011;6021;51.182;3.160;2023-08-17T06:10:38;2.77;;;2.47;;
11921;SDS011;6021;51.182;3.160;2023-08-17T06:13:07;4.97;;;2.83;;
11921;SDS011;6021;51.182;3.160;2023-08-17T06:15:35;3.77;;;2.80;;
11921;SDS011;6021;51.182;3.160;2023-08-17T06:18:04;4.53;;;2.90;;
11921;SDS011;6021;51.182;3.160;2023-08-17T06:20:32;3.53;;;2.60;;
11921;SDS011;6021;51.182;3.160;2023-08-17T06:23:00;2.83;;;2.60;;
11921;SDS011;6021;51.182;3.160;2023-08-17T06:25:29;4.03;;;2.70;;
11921;SDS011;6021;51.182;3.160;2023-08-17T06:27:57;4.47;;;2.57;;
11921;SDS011;6021;51.182;3.160;2023-08-17T06:30:26;3.90;;;2.70;;
11921;SDS011;6021;51.182;3.160;2023-08-17T06:32:54;4.20;;;2.57;;
11921;SDS011;6021;51.182;3.160;2023-08-17T06:35:22;2.63;;;2.40;;
11921;SDS011;6021;51.182;3.160;2023-08-17T06:37:51;5.03;;;2.60;;
11921;SDS011;6021;51.182;3.160;2023-08-17T06:40:21;4.33;;;2.63;;
11921;SDS011;6021;51.182;3.160;2023-08-17T06:42:49;3.63;;;2.50;;
11921;SDS011;6021;51.182;3.160;2023-08-17T06:45:18;5.53;;;2.70;;
11921;SDS011;6021;51.182;3.160;2023-08-17T06:47:47;4.60;;;2.67;;
11921;SDS011;6021;51.182;3.160;2023-08-17T06:50:15;4.57;;;2.20;;
11921;SDS011;6021;51.182;3.160;2023-08-17T06:52:44;2.57;;;2.10;;
11921;SDS011;6021;51.182;3.160;2023-08-17T06:55:12;4.30;;;2.33;;
11921;SDS011;6021;51.182;3.160;2023-08-17T06:57:42;3.47;;;2.10;;
11921;SDS011;6021;51.182;3.160;2023-08-17T07:00:10;3.37;;;1.97;;
11921;SDS011;6021;51.182;3.160;2023-08-17T07:02:39;3.23;;;2.50;;
11921;SDS011;6021;51.182;3.160;2023-08-17T07:05:09;4.80;;;2.73;;
11921;SDS011;6021;51.182;3.160;2023-08-17T07:07:38;4.20;;;2.27;;
11921;SDS011;6021;51.182;3.160;2023-08-17T07:10:06;3.53;;;2.10;;
11921;SDS011;6021;51.182;3.160;2023-08-17T07:12:35;3.80;;;2.07;;
11921;SDS011;6021;51.182;3.160;2023-08-17T07:15:04;3.90;;;2.17;;
11921;SDS011;6021;51.182;3.160;2023-08-17T07:17:33;3.57;;;2.30;;
11921;SDS011;6021;51.182;3.160;2023-08-17T07:20:03;3.67;;;2.20;;
11921;SDS011;6021;51.182;3.160;2023-08-17T07:22:34;4.17;;;2.07;;
11921;SDS011;6021;51.182;3.160;2023-08-17T07:25:02;3.10;;;2.20;;
11921;SDS011;6021;51.182;3.160;2023-08-17T07:27:31;3.00;;;2.37;;
11921;SDS011;6021;51.182;3.160;2023-08-17T07:29:59;2.97;;;2.50;;
11921;SDS011;6021;51.182;3.160;2023-08-17T07:32:27;3.43;;;2.60;;
11921;SDS011;6021;51.182;3.160;2023-08-17T07:34:56;5.07;;;2.50;;
11921;SDS011;6021;51.182;3.160;2023-08-17T07:37:24;2.20;;;2.00;;
11921;SDS011;6021;51.182;3.160;2023-08-17T07:39:54;3.20;;;2.57;;
11921;SDS011;6021;51.182;3.160;2023-08-17T07:42:23;4.73;;;2.40;;
11921;SDS011;6021;51.182;3.160;2023-08-17T07:44:51;4.60;;;2.50;;
11921;SDS011;6021;51.182;3.160;2023-08-17T07:47:20;3.80;;;2.03;;
11921;SDS011;6021;51.182;3.160;2023-08-17T07:49:48;3.33;;;2.20;;
11921;SDS011;6021;51.182;3.160;2023-08-17T07:52:17;3.77;;;2.00;;
11921;SDS011;6021;51.182;3.160;2023-08-17T07:54:45;4.67;;;2.40;;
11921;SDS011;6021;51.182;3.160;2023-08-17T07:57:13;2.47;;;1.90;;
11921;SDS011;6021;51.182;3.160;2023-08-17T07:59:42;3.10;;;2.03;;
11921;SDS011;6021;51.182;3.160;2023-08-17T08:02:10;3.03;;;2.10;;
11921;SDS011;6021;51.182;3.160;2023-08-17T08:04:38;2.70;;;2.00;;
11921;SDS011;6021;51.182;3.160;2023-08-17T08:07:07;4.50;;;2.07;;
11921;SDS011;6021;51.182;3.160;2023-08-17T08:09:35;2.77;;;2.03;;
11921;SDS011;6021;51.182;3.160;2023-08-17T08:12:05;3.77;;;2.33;;
11921;SDS011;6021;51.182;3.160;2023-08-17T08:14:35;3.53;;;2.40;;
11921;SDS011;6021;51.182;3.160;2023-08-17T08:17:04;3.90;;;2.40;;
11921;SDS011;6021;51.182;3.160;2023-08-17T08:19:32;4.63;;;2.53;;
11921;SDS011;6021;51.182;3.160;2023-08-17T08:22:01;4.73;;;2.53;;
11921;SDS011;6021;51.182;3.160;2023-08-17T08:24:29;4.00;;;2.37;;
11921;SDS011;6021;51.182;3.160;2023-08-17T08:26:59;2.30;;;2.10;;
11921;SDS011;6021;51.182;3.160;2023-08-17T08:29:28;3.97;;;2.47;;
11921;SDS011;6021;51.182;3.160;2023-08-17T08:31:56;3.53;;;2.23;;
11921;SDS011;6021;51.182;3.160;2023-08-17T08:34:26;3.50;;;2.00;;
11921;SDS011;6021;51.182;3.160;2023-08-17T08:36:54;4.00;;;2.80;;
11921;SDS011;6021;51.182;3.160;2023-08-17T08:39:24;4.23;;;2.87;;
11921;SDS011;6021;51.182;3.160;2023-08-17T08:41:54;3.00;;;2.60;;
11921;SDS011;6021;51.182;3.160;2023-08-17T08:44:22;3.10;;;2.53;;
11921;SDS011;6021;51.182;3.160;2023-08-17T08:46:51;4.80;;;2.80;;
11921;SDS011;6021;51.182;3.160;2023-08-17T08:49:23;3.43;;;3.00;;
11921;SDS011;6021;51.182;3.160;2023-08-17T08:51:52;2.63;;;2.43;;
11921;SDS011;6021;51.182;3.160;2023-08-17T08:54:22;4.33;;;2.50;;
11921;SDS011;6021;51.182;3.160;2023-08-17T08:56:54;4.90;;;3.37;;
11921;SDS011;6021;51.182;3.160;2023-08-17T08:59:23;4.17;;;3.17;;
11921;SDS011;6021;51.182;3.160;2023-08-17T09:01:53;8.33;;;3.47;;
11921;SDS011;6021;51.182;3.160;2023-08-17T09:04:24;5.60;;;2.73;;
11921;SDS011;6021;51.182;3.160;2023-08-17T09:06:53;4.73;;;3.00;;
11921;SDS011;6021;51.182;3.160;2023-08-17T09:09:22;6.40;;;3.70;;
11921;SDS011;6021;51.182;3.160;2023-08-17T09:11:51;4.60;;;3.00;;
11921;SDS011;6021;51.182;3.160;2023-08-17T09:14:19;2.97;;;2.67;;
11921;SDS011;6021;51.182;3.160;2023-08-17T09:16:47;5.60;;;3.47;;
11921;SDS011;6021;51.182;3.160;2023-08-17T09:19:16;4.87;;;3.30;;
11921;SDS011;6021;51.182;3.160;2023-08-17T09:21:47;5.00;;;3.10;;
11921;SDS011;6021;51.182;3.160;2023-08-17T09:24:15;5.40;;;3.00;;
11921;SDS011;6021;51.182;3.160;2023-08-17T09:26:44;5.50;;;3.50;;
11921;SDS011;6021;51.182;3.160;2023-08-17T09:29:16;4.17;;;2.77;;
11921;SDS011;6021;51.182;3.160;2023-08-17T09:31:46;7.00;;;3.60;;
11921;SDS011;6021;51.182;3.160;2023-08-17T09:34:14;5.70;;;3.40;;
11921;SDS011;6021;51.182;3.160;2023-08-17T09:36:45;6.33;;;3.50;;
11921;SDS011;6021;51.182;3.160;2023-08-17T09:39:15;4.03;;;3.23;;
11921;SDS011;6021;51.182;3.160;2023-08-17T09:41:44;4.67;;;3.50;;
11921;SDS011;6021;51.182;3.160;2023-08-17T09:44:13;4.93;;;3.27;;
11921;SDS011;6021;51.182;3.160;2023-08-17T09:46:42;7.13;;;3.30;;
11921;SDS011;6021;51.182;3.160;2023-08-17T09:49:11;4.30;;;3.30;;
11921;SDS011;6021;51.182;3.160;2023-08-17T09:51:42;5.17;;;3.33;;
11921;SDS011;6021;51.182;3.160;2023-08-17T09:54:23;5.13;;;3.23;;
11921;SDS011;6021;51.182;3.160;2023-08-17T09:56:55;3.27;;;2.90;;
11921;SDS011;6021;51.182;3.160;2023-08-17T09:59:24;4.07;;;2.63;;
11921;SDS011;6021;51.182;3.160;2023-08-17T10:01:53;6.47;;;2.87;;
11921;SDS011;6021;51.182;3.160;2023-08-17T10:04:22;5.53;;;2.83;;
11921;SDS011;6021;51.182;3.160;2023-08-17T10:06:51;5.30;;;3.80;;
11921;SDS011;6021;51.182;3.160;2023-08-17T10:09:23;4.80;;;3.17;;
11921;SDS011;6021;51.182;3.160;2023-08-17T10:11:53;4.40;;;3.10;;
11921;SDS011;6021;51.182;3.160;2023-08-17T10:14:26;3.63;;;2.80;;
11921;SDS011;6021;51.182;3.160;2023-08-17T10:17:01;4.33;;;3.30;;
11921;SDS011;6021;51.182;3.160;2023-08-17T10:22:16;6.93;;;3.87;;
11921;SDS011;6021;51.182;3.160;2023-08-17T10:25:05;5.17;;;4.10;;
11921;SDS011;6021;51.182;3.160;2023-08-17T10:27:37;6.17;;;3.50;;
11921;SDS011;6021;51.182;3.160;2023-08-17T10:30:13;4.00;;;3.60;;
11921;SDS011;6021;51.182;3.160;2023-08-17T10:32:38;6.57;;;4.20;;
11921;SDS011;6021;51.182;3.160;2023-08-17T10:35:09;6.40;;;3.70;;
11921;SDS011;6021;51.182;3.160;2023-08-17T10:37:38;5.57;;;3.80;;
11921;SDS011;6021;51.182;3.160;2023-08-17T10:40:07;6.13;;;3.80;;
11921;SDS011;6021;51.182;3.160;2023-08-17T10:42:37;6.60;;;4.10;;
11921;SDS011;6021;51.182;3.160;2023-08-17T10:50:38;5.97;;;3.53;;
11921;SDS011;6021;51.182;3.160;2023-08-17T10:55:40;5.40;;;3.60;;
11921;SDS011;6021;51.182;3.160;2023-08-17T10:58:10;6.03;;;4.13;;
11921;SDS011;6021;51.182;3.160;2023-08-17T11:00:38;6.53;;;4.13;;
11921;SDS011;6021;51.182;3.160;2023-08-17T11:03:15;5.23;;;3.30;;
11921;SDS011;6021;51.182;3.160;2023-08-17T11:05:51;6.77;;;3.53;;
11921;SDS011;6021;51.182;3.160;2023-08-17T11:08:31;5.83;;;3.83;;
11921;SDS011;6021;51.182;3.160;2023-08-17T11:11:04;4.47;;;3.40;;
11921;SDS011;6021;51.182;3.160;2023-08-17T11:13:35;6.13;;;3.83;;
11921;SDS011;6021;51.182;3.160;2023-08-17T11:16:05;6.10;;;3.57;;
11921;SDS011;6021;51.182;3.160;2023-08-17T11:18:34;5.00;;;3.67;;
11921;SDS011;6021;51.182;3.160;2023-08-17T11:21:04;6.53;;;3.80;;
11921;SDS011;6021;51.182;3.160;2023-08-17T11:23:34;6.63;;;3.63;;
11921;SDS011;6021;51.182;3.160;2023-08-17T11:26:03;6.40;;;3.10;;
11921;SDS011;6021;51.182;3.160;2023-08-17T11:28:33;3.57;;;2.80;;
11921;SDS011;6021;51.182;3.160;2023-08-17T11:31:04;5.23;;;3.73;;
11921;SDS011;6021;51.182;3.160;2023-08-17T11:33:34;4.30;;;3.13;;
11921;SDS011;6021;51.182;3.160;2023-08-17T11:36:04;5.73;;;3.10;;
11921;SDS011;6021;51.182;3.160;2023-08-17T11:38:36;4.47;;;3.10;;
11921;SDS011;6021;51.182;3.160;2023-08-17T11:41:06;4.77;;;2.87;;
11921;SDS011;6021;51.182;3.160;2023-08-17T11:43:35;4.77;;;3.60;;
11921;SDS011;6021;51.182;3.160;2023-08-17T11:46:04;5.50;;;3.40;;
11921;SDS011;6021;51.182;3.160;2023-08-17T11:48:33;5.13;;;3.40;;
11921;SDS011;6021;51.182;3.160;2023-08-17T11:51:01;5.57;;;3.63;;
11921;SDS011;6021;51.182;3.160;2023-08-17T11:53:33;7.17;;;4.20;;
11921;SDS011;6021;51.182;3.160;2023-08-17T11:56:06;3.93;;;3.53;;
11921;SDS011;6021;51.182;3.160;2023-08-17T11:58:41;5.07;;;3.10;;
11921;SDS011;6021;51.182;3.160;2023-08-17T12:01:10;4.17;;;3.70;;
11921;SDS011;6021;51.182;3.160;2023-08-17T12:03:41;5.93;;;3.43;;
11921;SDS011;6021;51.182;3.160;2023-08-17T12:06:10;4.13;;;3.40;;
11921;SDS011;6021;51.182;3.160;2023-08-17T12:08:42;6.50;;;3.50;;
11921;SDS011;6021;51.182;3.160;2023-08-17T12:11:12;5.47;;;3.93;;
11921;SDS011;6021;51.182;3.160;2023-08-17T12:13:40;5.67;;;3.73;;
11921;SDS011;6021;51.182;3.160;2023-08-17T12:16:14;4.60;;;3.70;;
11921;SDS011;6021;51.182;3.160;2023-08-17T12:18:43;7.47;;;4.43;;
11921;SDS011;6021;51.182;3.160;2023-08-17T12:21:21;5.83;;;4.10;;
11921;SDS011;6021;51.182;3.160;2023-08-17T12:23:50;5.30;;;3.50;;
11921;SDS011;6021;51.182;3.160;2023-08-17T12:26:19;5.87;;;4.43;;
11921;SDS011;6021;51.182;3.160;2023-08-17T12:28:48;9.10;;;4.53;;
11921;SDS011;6021;51.182;3.160;2023-08-17T12:31:23;5.17;;;4.40;;
11921;SDS011;6021;51.182;3.160;2023-08-17T12:33:51;7.07;;;4.40;;
11921;SDS011;6021;51.182;3.160;2023-08-17T12:36:20;4.67;;;4.27;;
11921;SDS011;6021;51.182;3.160;2023-08-17T12:38:48;6.50;;;4.17;;
11921;SDS011;6021;51.182;3.160;2023-08-17T12:41:17;4.33;;;3.27;;
11921;SDS011;6021;51.182;3.160;2023-08-17T12:43:45;5.20;;;3.90;;
11921;SDS011;6021;51.182;3.160;2023-08-17T12:46:13;5.53;;;3.73;;
11921;SDS011;6021;51.182;3.160;2023-08-17T12:48:42;4.10;;;3.70;;
11921;SDS011;6021;51.182;3.160;2023-08-17T12:51:10;7.50;;;3.60;;
11921;SDS011;6021;51.182;3.160;2023-08-17T12:53:39;5.90;;;3.60;;
11921;SDS011;6021;51.182;3.160;2023-08-17T12:56:09;6.20;;;5.27;;
11921;SDS011;6021;51.182;3.160;2023-08-17T12:58:37;6.50;;;3.97;;
11921;SDS011;6021;51.182;3.160;2023-08-17T13:01:06;4.97;;;3.87;;
11921;SDS011;6021;51.182;3.160;2023-08-17T13:03:34;4.53;;;3.53;;
11921;SDS011;6021;51.182;3.160;2023-08-17T13:06:02;6.40;;;4.53;;
11921;SDS011;6021;51.182;3.160;2023-08-17T13:08:31;6.70;;;5.57;;
11921;SDS011;6021;51.182;3.160;2023-08-17T13:11:00;5.53;;;4.37;;
11921;SDS011;6021;51.182;3.160;2023-08-17T13:13:28;4.93;;;4.10;;
11921;SDS011;6021;51.182;3.160;2023-08-17T13:15:56;6.47;;;5.03;;
11921;SDS011;6021;51.182;3.160;2023-08-17T13:18:25;5.83;;;4.20;;
11921;SDS011;6021;51.182;3.160;2023-08-17T13:20:55;7.27;;;4.53;;
11921;SDS011;6021;51.182;3.160;2023-08-17T13:23:23;6.47;;;5.10;;
11921;SDS011;6021;51.182;3.160;2023-08-17T13:25:51;5.40;;;4.27;;
11921;SDS011;6021;51.182;3.160;2023-08-17T13:28:20;6.73;;;5.10;;
11921;SDS011;6021;51.182;3.160;2023-08-17T13:30:48;5.70;;;4.30;;
11921;SDS011;6021;51.182;3.160;2023-08-17T13:33:17;4.30;;;3.83;;
11921;SDS011;6021;51.182;3.160;2023-08-17T13:35:45;4.83;;;4.33;;
11921;SDS011;6021;51.182;3.160;2023-08-17T13:38:13;7.07;;;5.37;;
11921;SDS011;6021;51.182;3.160;2023-08-17T13:40:42;7.17;;;4.60;;
11921;SDS011;6021;51.182;3.160;2023-08-17T13:43:10;5.53;;;4.20;;
11921;SDS011;6021;51.182;3.160;2023-08-17T13:45:39;6.70;;;4.83;;
11921;SDS011;6021;51.182;3.160;2023-08-17T13:48:07;7.03;;;4.87;;
11921;SDS011;6021;51.182;3.160;2023-08-17T13:50:37;6.80;;;5.67;;
11921;SDS011;6021;51.182;3.160;2023-08-17T13:53:06;8.77;;;6.43;;
11921;SDS011;6021;51.182;3.160;2023-08-17T13:55:34;9.40;;;7.60;;
11921;SDS011;6021;51.182;3.160;2023-08-17T13:58:03;6.57;;;5.80;;
11921;SDS011;6021;51.182;3.160;2023-08-17T14:00:31;8.00;;;7.20;;
11921;SDS011;6021;51.182;3.160;2023-08-17T14:03:00;10.10;;;9.10;;
11921;SDS011;6021;51.182;3.160;2023-08-17T14:06:27;7.33;;;6.53;;
11921;SDS011;6021;51.182;3.160;2023-08-17T14:08:55;11.57;;;8.60;;
11921;SDS011;6021;51.182;3.160;2023-08-17T14:11:23;8.47;;;7.00;;
11921;SDS011;6021;51.182;3.160;2023-08-17T14:13:52;6.80;;;6.17;;
11921;SDS011;6021;51.182;3.160;2023-08-17T14:16:20;10.47;;;9.50;;
11921;SDS011;6021;51.182;3.160;2023-08-17T14:18:48;10.30;;;9.43;;
11921;SDS011;6021;51.182;3.160;2023-08-17T14:21:17;10.40;;;9.40;;
11921;SDS011;6021;51.182;3.160;2023-08-17T14:23:45;10.40;;;9.30;;
11921;SDS011;6021;51.182;3.160;2023-08-17T14:26:14;12.10;;;11.00;;
11921;SDS011;6021;51.182;3.160;2023-08-17T14:28:42;11.63;;;10.13;;
11921;SDS011;6021;51.182;3.160;2023-08-17T14:31:10;9.83;;;8.77;;
11921;SDS011;6021;51.182;3.160;2023-08-17T14:33:40;9.03;;;8.07;;
11921;SDS011;6021;51.182;3.160;2023-08-17T14:36:09;9.77;;;8.83;;
11921;SDS011;6021;51.182;3.160;2023-08-17T14:38:37;12.03;;;10.33;;
11921;SDS011;6021;51.182;3.160;2023-08-17T14:41:06;12.47;;;10.37;;
11921;SDS011;6021;51.182;3.160;2023-08-17T14:43:35;10.30;;;8.80;;
11921;SDS011;6021;51.182;3.160;2023-08-17T14:46:04;11.10;;;9.20;;
11921;SDS011;6021;51.182;3.160;2023-08-17T14:48:32;11.50;;;9.47;;
11921;SDS011;6021;51.182;3.160;2023-08-17T14:51:01;11.30;;;8.00;;
11921;SDS011;6021;51.182;3.160;2023-08-17T14:53:29;10.80;;;9.43;;
11921;SDS011;6021;51.182;3.160;2023-08-17T14:55:58;10.83;;;9.77;;
11921;SDS011;6021;51.182;3.160;2023-08-17T14:58:26;10.43;;;8.40;;
11921;SDS011;6021;51.182;3.160;2023-08-17T15:00:55;8.93;;;7.00;;
11921;SDS011;6021;51.182;3.160;2023-08-17T15:03:23;9.17;;;7.03;;
11921;SDS011;6021;51.182;3.160;2023-08-17T15:05:51;8.40;;;6.43;;
11921;SDS011;6021;51.182;3.160;2023-08-17T15:08:20;9.47;;;8.20;;
11921;SDS011;6021;51.182;3.160;2023-08-17T15:10:48;9.97;;;8.67;;
11921;SDS011;6021;51.182;3.160;2023-08-17T15:13:17;8.70;;;7.80;;
11921;SDS011;6021;51.182;3.160;2023-08-17T15:15:45;6.47;;;5.90;;
11921;SDS011;6021;51.182;3.160;2023-08-17T15:18:14;9.43;;;7.93;;
11921;SDS011;6021;51.182;3.160;2023-08-17T15:20:42;9.63;;;7.83;;
11921;SDS011;6021;51.182;3.160;2023-08-17T15:23:10;10.87;;;8.23;;
11921;SDS011;6021;51.182;3.160;2023-08-17T15:25:39;9.43;;;8.43;;
11921;SDS011;6021;51.182;3.160;2023-08-17T15:28:07;9.63;;;8.70;;